createdAt,value
2023-02-17T00:00:00.122Z,964.9779053
2023-02-17T00:01:01.680Z,964.9782104
2023-02-17T00:02:02.191Z,964.9819336
2023-02-17T00:03:02.720Z,964.9607544
2023-02-17T00:04:03.273Z,964.9678345
2023-02-17T00:05:03.857Z,964.9788208
2023-02-17T00:06:05.443Z,964.975647
2023-02-17T00:07:05.794Z,964.960022
2023-02-17T00:08:06.418Z,964.9963989
2023-02-17T00:09:07.576Z,965.0340576
2023-02-17T00:10:08.096Z,964.9865723
2023-02-17T00:11:08.692Z,965.0516968
2023-02-17T00:12:09.318Z,965.0203247
2023-02-17T00:13:09.987Z,965.0176392
2023-02-17T00:14:10.677Z,965.0897827
2023-02-17T00:15:11.176Z,965.0598145
2023-02-17T00:16:11.884Z,965.0493774
2023-02-17T00:17:12.493Z,965.095459
2023-02-17T00:18:13.090Z,965.039917
2023-02-17T00:19:14.562Z,965.0793457
2023-02-17T00:20:15.213Z,965.1062622
2023-02-17T00:21:15.900Z,965.0804443
2023-02-17T00:22:16.365Z,965.1203003
2023-02-17T00:23:16.893Z,965.1300049
2023-02-17T00:24:17.480Z,965.1428223
2023-02-17T00:25:18.795Z,965.1871338
2023-02-17T00:26:19.333Z,965.173645
2023-02-17T00:27:19.878Z,965.1693726
2023-02-17T00:28:20.450Z,965.1621704
2023-02-17T00:29:52.145Z,965.1981812
2023-02-17T00:30:52.744Z,965.1453247
2023-02-17T00:31:53.212Z,965.1593628
2023-02-17T00:32:53.670Z,965.1126709
2023-02-17T00:33:54.241Z,965.1255493
2023-02-17T00:34:54.869Z,965.0887451
2023-02-17T00:35:56.334Z,965.1204834
2023-02-17T00:36:56.864Z,965.1520386
2023-02-17T00:37:57.408Z,965.1373291
2023-02-17T00:38:58.822Z,965.1551514
2023-02-17T00:39:59.438Z,965.1470337
2023-02-17T00:41:00.043Z,965.1241455
2023-02-17T00:42:00.648Z,965.1578979
2023-02-17T00:43:01.130Z,965.1546631
2023-02-17T00:44:01.850Z,965.1451416
2023-02-17T00:45:02.387Z,965.0726318
2023-02-17T00:46:03.117Z,965.0667114
2023-02-17T00:47:03.557Z,965.1015625
2023-02-17T00:48:04.046Z,965.0315552
2023-02-17T00:49:05.336Z,965.0106201
2023-02-17T00:50:05.965Z,965.0237427
2023-02-17T00:51:06.478Z,965.0301514
2023-02-17T00:52:07.053Z,965.0253296
2023-02-17T00:53:07.606Z,965.0046997
2023-02-17T00:54:08.141Z,965.006897
2023-02-17T00:55:09.370Z,964.9657593
2023-02-17T00:56:09.966Z,965.008728
2023-02-17T00:57:10.711Z,964.9819336
2023-02-17T00:58:11.174Z,965.0095215
2023-02-17T00:59:12.915Z,965.0136719
2023-02-17T01:00:13.539Z,965.0095215
2023-02-17T01:01:14.062Z,965.0184937
2023-02-17T01:02:14.643Z,965.0460815
2023-02-17T01:03:15.160Z,965.0239258
2023-02-17T01:04:15.693Z,965.0604858
2023-02-17T01:05:16.193Z,965.0495605
2023-02-17T01:06:16.798Z,965.0909424
2023-02-17T01:07:17.375Z,965.0699463
2023-02-17T01:08:17.904Z,965.0510864
2023-02-17T01:09:19.349Z,965.0682983
2023-02-17T01:10:19.930Z,965.0645142
2023-02-17T01:11:20.585Z,965.0881348
2023-02-17T01:12:51.759Z,965.0968018
2023-02-17T01:13:52.322Z,965.1096802
2023-02-17T01:14:52.870Z,965.1500244
2023-02-17T01:15:54.087Z,965.1884155
2023-02-17T01:16:54.727Z,965.1757202
2023-02-17T01:17:55.288Z,965.1386108
2023-02-17T01:18:55.849Z,965.1165771
2023-02-17T01:19:57.099Z,965.1278076
2023-02-17T01:20:57.696Z,965.111084
2023-02-17T01:21:58.173Z,965.0908813
2023-02-17T01:22:58.682Z,965.1105957
2023-02-17T01:23:59.231Z,965.0901489
2023-02-17T01:24:59.762Z,965.1124268
2023-02-17T01:26:00.252Z,965.0924072
2023-02-17T01:27:00.722Z,965.1383057
2023-02-17T01:28:01.396Z,965.1188354
2023-02-17T01:29:02.618Z,965.1450195
2023-02-17T01:30:03.162Z,965.1317749
2023-02-17T01:31:03.806Z,965.1537476
2023-02-17T01:32:04.214Z,965.1426392
2023-02-17T01:33:04.727Z,965.1375122
2023-02-17T01:34:05.265Z,965.1359863
2023-02-17T01:35:05.823Z,965.1623535
2023-02-17T01:36:06.763Z,965.1326294
2023-02-17T01:37:06.854Z,965.1065674
2023-02-17T01:38:07.381Z,965.0748291
2023-02-17T01:39:07.872Z,965.0709229
2023-02-17T01:40:09.108Z,964.9996338
2023-02-17T01:41:09.626Z,965.0291138
2023-02-17T01:42:10.122Z,965.0314331
2023-02-17T01:43:10.970Z,965.0064087
2023-02-17T01:44:11.548Z,965.020874
2023-02-17T01:45:12.085Z,964.9995117
2023-02-17T01:46:12.678Z,965.0316162
2023-02-17T01:47:13.057Z,965.0114136
2023-02-17T01:48:13.537Z,965.0476685
2023-02-17T01:49:14.862Z,965.0577393
2023-02-17T01:50:15.389Z,965.0418701
2023-02-17T01:51:16.050Z,965.0779419
2023-02-17T01:52:16.405Z,965.0751343
2023-02-17T01:53:16.909Z,965.0709229
2023-02-17T01:54:17.397Z,965.0673218
2023-02-17T01:55:17.947Z,965.0870972
2023-02-17T01:56:18.502Z,965.0641479
2023-02-17T01:57:19.053Z,965.0790405
2023-02-17T01:58:20.336Z,965.0737305
2023-02-17T01:59:51.055Z,965.0178223
2023-02-17T02:00:52.307Z,965.060791
2023-02-17T02:01:52.989Z,965.0496216
2023-02-17T02:02:53.472Z,965.053772
2023-02-17T02:03:53.834Z,965.0133057
2023-02-17T02:04:54.321Z,965.0315552
2023-02-17T02:05:54.879Z,964.9882202
2023-02-17T02:06:55.351Z,965.0471802
2023-02-17T02:07:55.865Z,965.0571289
2023-02-17T02:08:56.363Z,965.0290527
2023-02-17T02:09:57.576Z,965.0822144
2023-02-17T02:10:58.135Z,964.9890747
2023-02-17T02:11:58.643Z,965.0061035
2023-02-17T02:12:59.185Z,964.9551392
2023-02-17T02:13:59.718Z,964.946228
2023-02-17T02:15:00.192Z,964.9074707
2023-02-17T02:16:00.753Z,964.9006348
2023-02-17T02:17:01.305Z,964.8945923
2023-02-17T02:18:02.645Z,964.9031982
2023-02-17T02:19:03.234Z,964.8862305
2023-02-17T02:20:04.609Z,964.850708
2023-02-17T02:21:05.155Z,964.9020386
2023-02-17T02:22:05.682Z,964.8933716
2023-02-17T02:23:06.221Z,964.8401489
2023-02-17T02:24:06.756Z,964.8682861
2023-02-17T02:25:07.262Z,964.8781128
2023-02-17T02:26:07.996Z,964.862915
2023-02-17T02:27:08.364Z,964.935791
2023-02-17T02:28:08.932Z,964.9179688
2023-02-17T02:29:10.071Z,964.8806152
2023-02-17T02:30:11.158Z,964.8806152
2023-02-17T02:31:11.706Z,964.8580322
2023-02-17T02:32:12.099Z,964.852478
2023-02-17T02:33:12.600Z,964.8570557
2023-02-17T02:34:13.174Z,964.8540649
2023-02-17T02:35:13.669Z,964.8654175
2023-02-17T02:36:14.143Z,964.8613892
2023-02-17T02:37:14.612Z,964.8534546
2023-02-17T02:38:15.090Z,964.873291
2023-02-17T02:39:15.657Z,964.8951416
2023-02-17T02:40:17.091Z,964.916748
2023-02-17T02:41:17.602Z,964.9129028
2023-02-17T02:42:18.829Z,964.9226074
2023-02-17T02:43:19.318Z,964.9509277
2023-02-17T02:44:50.457Z,964.925293
2023-02-17T02:45:51.014Z,964.9640503
2023-02-17T02:46:51.463Z,964.9051514
2023-02-17T02:47:52.013Z,964.9171753
2023-02-17T02:48:52.512Z,964.9042969
2023-02-17T02:49:53.876Z,964.8584595
2023-02-17T02:50:54.378Z,964.8793945
2023-02-17T02:51:54.884Z,964.8745117
2023-02-17T02:52:55.384Z,964.8554688
2023-02-17T02:53:55.868Z,964.8554688
2023-02-17T02:54:56.407Z,964.8409424
2023-02-17T02:55:56.925Z,964.8560791
2023-02-17T02:56:57.438Z,964.8465576
2023-02-17T02:57:57.962Z,964.8393555
2023-02-17T02:58:59.026Z,964.8342896
2023-02-17T03:00:00.376Z,964.8348389
2023-02-17T03:01:00.909Z,964.8122559
2023-02-17T03:02:01.377Z,964.7945557
2023-02-17T03:03:01.901Z,964.7982788
2023-02-17T03:04:02.437Z,964.7998657
2023-02-17T03:05:02.904Z,964.8303223
2023-02-17T03:06:03.511Z,964.8096924
2023-02-17T03:07:03.974Z,964.7980347
2023-02-17T03:08:04.510Z,964.8295898
2023-02-17T03:09:05.098Z,964.8304443
2023-02-17T03:10:06.297Z,964.8288574
2023-02-17T03:11:06.838Z,964.8162231
2023-02-17T03:12:08.174Z,964.8548584
2023-02-17T03:13:08.724Z,964.8161011
2023-02-17T03:14:09.253Z,964.84198
2023-02-17T03:15:09.728Z,964.84198
2023-02-17T03:16:11.129Z,964.8223267
2023-02-17T03:17:11.530Z,964.8125
2023-02-17T03:18:12.078Z,964.8327637
2023-02-17T03:19:12.577Z,964.8253784
2023-02-17T03:20:13.809Z,964.7810669
2023-02-17T03:21:14.362Z,964.8284302
2023-02-17T03:22:14.817Z,964.7835693
2023-02-17T03:23:15.368Z,964.7297363
2023-02-17T03:24:15.887Z,964.7773438
2023-02-17T03:25:16.403Z,964.7374878
2023-02-17T03:26:16.914Z,964.7584229
2023-02-17T03:27:18.028Z,964.7495117
2023-02-17T03:28:18.571Z,964.7926025
2023-02-17T03:29:19.501Z,964.7705688
2023-02-17T03:30:51.148Z,964.8173218
2023-02-17T03:31:51.761Z,964.765686
2023-02-17T03:32:52.122Z,964.8005981
2023-02-17T03:33:52.704Z,964.7867432
2023-02-17T03:34:53.230Z,964.7980957
2023-02-17T03:35:53.804Z,964.829834
2023-02-17T03:36:54.375Z,964.770752
2023-02-17T03:37:54.839Z,964.8051758
2023-02-17T03:38:55.389Z,964.8236084
2023-02-17T03:39:55.888Z,964.7809448
2023-02-17T03:40:57.080Z,964.8052979
2023-02-17T03:41:57.590Z,964.8096924
2023-02-17T03:42:58.107Z,964.7515869
2023-02-17T03:43:58.634Z,964.7878418
2023-02-17T03:44:59.236Z,964.7565918
2023-02-17T03:45:59.837Z,964.7642822
2023-02-17T03:47:00.379Z,964.7578125
2023-02-17T03:48:00.866Z,964.7874146
2023-02-17T03:49:01.380Z,964.7529907
2023-02-17T03:50:01.940Z,964.770752
2023-02-17T03:51:03.100Z,964.7497559
2023-02-17T03:52:03.711Z,964.7295532
2023-02-17T03:53:04.221Z,964.7650146
2023-02-17T03:54:04.727Z,964.7675171
2023-02-17T03:55:05.249Z,964.7908325
2023-02-17T03:56:06.731Z,964.7970581
2023-02-17T03:57:06.932Z,964.803894
2023-02-17T03:58:07.483Z,964.7932129
2023-02-17T03:59:08.003Z,964.8222656
2023-02-17T04:00:08.498Z,964.8001709
2023-02-17T04:01:09.642Z,964.7840576
2023-02-17T04:02:10.470Z,964.7970581
2023-02-17T04:03:11.024Z,964.7949829
2023-02-17T04:04:11.611Z,964.7874756
2023-02-17T04:05:12.042Z,964.7807617
2023-02-17T04:06:12.611Z,964.7907104
2023-02-17T04:07:13.143Z,964.8515015
2023-02-17T04:08:13.645Z,964.8448486
2023-02-17T04:09:14.159Z,964.7954102
2023-02-17T04:10:14.682Z,964.8687744
2023-02-17T04:11:16.046Z,964.8477173
2023-02-17T04:12:16.614Z,964.8214111
2023-02-17T04:13:17.134Z,964.8364258
2023-02-17T04:14:17.710Z,964.8161621
2023-02-17T04:15:18.231Z,964.8226318
2023-02-17T04:16:49.331Z,964.7921753
2023-02-17T04:17:49.904Z,964.8467407
2023-02-17T04:18:50.404Z,964.8057861
2023-02-17T04:19:50.894Z,964.7923584
2023-02-17T04:20:52.069Z,964.8295288
2023-02-17T04:21:52.604Z,964.8156738
2023-02-17T04:22:53.154Z,964.7737427
2023-02-17T04:23:53.766Z,964.7796631
2023-02-17T04:24:54.296Z,964.7927246
2023-02-17T04:25:54.846Z,964.7796631
2023-02-17T04:26:55.344Z,964.7619019
2023-02-17T04:27:55.855Z,964.7131348
2023-02-17T04:28:56.481Z,964.7572021
2023-02-17T04:29:57.228Z,964.7373657
2023-02-17T04:30:58.638Z,964.7106323
2023-02-17T04:31:59.242Z,964.7439575
2023-02-17T04:32:59.616Z,964.8033447
2023-02-17T04:34:00.115Z,964.751709
2023-02-17T04:35:00.696Z,964.7443848
2023-02-17T04:36:01.198Z,964.7506104
2023-02-17T04:37:01.759Z,964.7000732
2023-02-17T04:38:02.336Z,964.7511597
2023-02-17T04:39:02.752Z,964.7315063
2023-02-17T04:40:03.228Z,964.6837769
2023-02-17T04:41:04.602Z,964.7092285
2023-02-17T04:42:05.098Z,964.7162476
2023-02-17T04:43:05.677Z,964.7059937
2023-02-17T04:44:06.207Z,964.7070313
2023-02-17T04:45:06.694Z,964.6624756
2023-02-17T04:46:07.562Z,964.701416
2023-02-17T04:47:07.704Z,964.7103271
2023-02-17T04:48:08.258Z,964.72052
2023-02-17T04:49:08.722Z,964.7237549
2023-02-17T04:50:09.239Z,964.7056274
2023-02-17T04:51:10.600Z,964.7145996
2023-02-17T04:52:11.078Z,964.7219238
2023-02-17T04:53:11.605Z,964.7754517
2023-02-17T04:54:12.091Z,964.7706299
2023-02-17T04:55:12.596Z,964.7658081
2023-02-17T04:56:13.075Z,964.7474365
2023-02-17T04:57:13.589Z,964.7644043
2023-02-17T04:58:14.145Z,964.802002
2023-02-17T04:59:14.650Z,964.7988892
2023-02-17T05:00:15.132Z,964.7738037
2023-02-17T05:01:15.664Z,964.782959
2023-02-17T05:02:16.815Z,964.7667236
2023-02-17T05:03:17.325Z,964.7151489
2023-02-17T05:04:18.249Z,964.7761841
2023-02-17T05:05:49.013Z,964.7637329
2023-02-17T05:06:49.580Z,964.7971802
2023-02-17T05:07:50.136Z,964.7360229
2023-02-17T05:08:50.755Z,964.720459
2023-02-17T05:09:51.201Z,964.7193604
2023-02-17T05:10:52.326Z,964.6838379
2023-02-17T05:11:52.846Z,964.6501465
2023-02-17T05:12:54.291Z,964.6149902
2023-02-17T05:13:54.968Z,964.6085205
2023-02-17T05:14:55.433Z,964.6422119
2023-02-17T05:15:56.830Z,964.6599731
2023-02-17T05:16:57.319Z,964.682373
2023-02-17T05:17:57.848Z,964.7081909
2023-02-17T05:18:58.380Z,964.7313843
2023-02-17T05:19:58.911Z,964.7327881
2023-02-17T05:21:00.311Z,964.7148438
2023-02-17T05:22:00.828Z,964.7720337
2023-02-17T05:23:01.331Z,964.7687378
2023-02-17T05:24:01.878Z,964.7380981
2023-02-17T05:25:02.369Z,964.732605
2023-02-17T05:26:02.866Z,964.762207
2023-02-17T05:27:03.349Z,964.7487793
2023-02-17T05:28:03.868Z,964.742981
2023-02-17T05:29:04.350Z,964.7407837
2023-02-17T05:30:04.871Z,964.7037354
2023-02-17T05:31:06.411Z,964.7098389
2023-02-17T05:32:06.895Z,964.7105713
2023-02-17T05:33:07.325Z,964.7139893
2023-02-17T05:34:07.958Z,964.7156372
2023-02-17T05:35:08.471Z,964.663147
2023-02-17T05:36:09.021Z,964.6612549
2023-02-17T05:37:09.563Z,964.6404419
2023-02-17T05:38:10.067Z,964.6173706
2023-02-17T05:39:10.700Z,964.5914307
2023-02-17T05:40:11.189Z,964.6157227
2023-02-17T05:41:12.313Z,964.635498
2023-02-17T05:42:12.836Z,964.5932617
2023-02-17T05:43:13.346Z,964.5896606
2023-02-17T05:44:14.028Z,964.6001587
2023-02-17T05:45:14.426Z,964.5879517
2023-02-17T05:46:15.028Z,964.5787354
2023-02-17T05:47:15.471Z,964.6359253
2023-02-17T05:48:15.950Z,964.6270142
2023-02-17T05:49:16.507Z,964.6107178
2023-02-17T05:50:17.012Z,964.5847168
2023-02-17T05:51:48.290Z,964.6112671
2023-02-17T05:52:49.570Z,964.6498413
2023-02-17T05:53:50.048Z,964.6560669
2023-02-17T05:54:50.527Z,964.6270142
2023-02-17T05:55:51.038Z,964.6550293
2023-02-17T05:56:51.616Z,964.6660767
2023-02-17T05:57:52.168Z,964.6612549
2023-02-17T05:58:52.728Z,964.6904907
2023-02-17T05:59:53.222Z,964.6986084
2023-02-17T06:00:53.733Z,964.6802979
2023-02-17T06:01:55.094Z,964.7120361
2023-02-17T06:02:55.699Z,964.7346191
2023-02-17T06:03:56.115Z,964.7095337
2023-02-17T06:04:57.642Z,964.7335815
2023-02-17T06:05:58.174Z,964.7593994
2023-02-17T06:06:59.314Z,964.7848511
2023-02-17T06:07:59.826Z,964.8262329
2023-02-17T06:09:00.358Z,964.8074951
2023-02-17T06:10:00.920Z,964.7839966
2023-02-17T06:11:01.438Z,964.8024902
2023-02-17T06:12:02.583Z,964.7994385
2023-02-17T06:13:03.066Z,964.8162231
2023-02-17T06:14:03.597Z,964.7888184
2023-02-17T06:15:04.283Z,964.7705688
2023-02-17T06:16:04.962Z,964.7818604
2023-02-17T06:17:05.299Z,964.7661133
2023-02-17T06:18:05.809Z,964.7609253
2023-02-17T06:19:06.328Z,964.7803345
2023-02-17T06:20:06.820Z,964.8093872
2023-02-17T06:21:07.269Z,964.7955322
2023-02-17T06:22:08.566Z,964.7611084
2023-02-17T06:23:09.074Z,964.8121948
2023-02-17T06:24:09.591Z,964.8484497
2023-02-17T06:25:10.211Z,964.831543
2023-02-17T06:26:10.891Z,964.8026733
2023-02-17T06:27:11.374Z,964.8016968
2023-02-17T06:28:11.893Z,964.871582
2023-02-17T06:29:13.277Z,964.8699951
2023-02-17T06:30:13.865Z,964.9238281
2023-02-17T06:31:14.481Z,964.9050293
2023-02-17T06:32:15.914Z,964.9076538
2023-02-17T06:33:16.451Z,964.9123535
2023-02-17T06:34:47.619Z,964.9238281
2023-02-17T06:35:48.151Z,964.8920288
2023-02-17T06:36:48.688Z,964.9710693
2023-02-17T06:37:49.197Z,964.9776611
2023-02-17T06:38:49.710Z,964.993042
2023-02-17T06:39:50.191Z,965.0142212
2023-02-17T06:40:50.699Z,965.0075073
2023-02-17T06:41:51.856Z,965.0349731
2023-02-17T06:42:52.341Z,965.0646362
2023-02-17T06:43:52.824Z,965.0684204
2023-02-17T06:44:53.291Z,965.0748291
2023-02-17T06:45:53.808Z,965.0964355
2023-02-17T06:46:54.275Z,965.1307983
2023-02-17T06:47:54.763Z,965.0899048
2023-02-17T06:48:55.290Z,965.0759277
2023-02-17T06:49:55.831Z,965.1384888
2023-02-17T06:50:56.300Z,965.1290894
2023-02-17T06:51:56.805Z,965.0999756
2023-02-17T06:52:57.296Z,965.1306152
2023-02-17T06:53:58.808Z,965.1221924
2023-02-17T06:54:59.306Z,965.170166
2023-02-17T06:55:59.855Z,965.1571655
2023-02-17T06:57:00.390Z,965.1287231
2023-02-17T06:58:00.870Z,965.1253052
2023-02-17T06:59:01.502Z,965.1429443
2023-02-17T07:00:02.009Z,965.1754761
2023-02-17T07:01:03.316Z,965.1623535
2023-02-17T07:02:04.970Z,965.1741943
2023-02-17T07:03:05.418Z,965.203125
2023-02-17T07:04:05.885Z,965.1710815
2023-02-17T07:05:06.347Z,965.2164307
2023-02-17T07:06:07.465Z,965.2540894
2023-02-17T07:07:07.732Z,965.2210083
2023-02-17T07:08:08.231Z,965.2290649
2023-02-17T07:09:09.097Z,965.2420044
2023-02-17T07:10:10.038Z,965.2524414
2023-02-17T07:11:11.020Z,965.2803955
2023-02-17T07:12:12.094Z,965.2965698
2023-02-17T07:13:12.577Z,965.3098145
2023-02-17T07:14:13.160Z,965.2874756
2023-02-17T07:15:13.769Z,965.300293
2023-02-17T07:16:15.158Z,965.3208008
2023-02-17T07:17:15.686Z,965.3251343
2023-02-17T07:18:16.632Z,965.3016357
2023-02-17T07:19:47.472Z,965.3021851
2023-02-17T07:20:48.018Z,965.3060913
2023-02-17T07:21:49.403Z,965.2634277
2023-02-17T07:22:50.017Z,965.2974854
2023-02-17T07:23:50.544Z,965.3262329
2023-02-17T07:24:51.164Z,965.3355713
2023-02-17T07:25:51.755Z,965.3393555
2023-02-17T07:26:52.352Z,965.3572388
2023-02-17T07:27:52.954Z,965.37146
2023-02-17T07:28:54.136Z,965.3894043
2023-02-17T07:29:54.665Z,965.3890381
2023-02-17T07:30:55.181Z,965.3933716
2023-02-17T07:31:56.399Z,965.3825073
2023-02-17T07:32:56.887Z,965.3375244
2023-02-17T07:33:57.374Z,965.3640747
2023-02-17T07:34:58.322Z,965.333252
2023-02-17T07:35:58.989Z,965.3362427
2023-02-17T07:36:59.568Z,965.3527222
2023-02-17T07:38:00.124Z,965.3674927
2023-02-17T07:39:00.860Z,965.3864746
2023-02-17T07:40:01.428Z,965.3759155
2023-02-17T07:41:01.919Z,965.4240112
2023-02-17T07:42:03.381Z,965.4182739
2023-02-17T07:43:03.942Z,965.3970947
2023-02-17T07:44:04.408Z,965.3807983
2023-02-17T07:45:05.404Z,965.3834229
2023-02-17T07:46:06.404Z,965.401123
2023-02-17T07:47:06.915Z,965.4411011
2023-02-17T07:48:07.533Z,965.4199829
2023-02-17T07:49:08.058Z,965.4147949
2023-02-17T07:50:08.582Z,965.456543
2023-02-17T07:51:09.129Z,965.4734497
2023-02-17T07:52:10.793Z,965.4852905
2023-02-17T07:53:11.407Z,965.4921875
2023-02-17T07:54:11.981Z,965.4765625
2023-02-17T07:55:12.578Z,965.5259399
2023-02-17T07:56:13.122Z,965.4798584
2023-02-17T07:57:13.629Z,965.4971313
2023-02-17T07:58:14.196Z,965.5234985
2023-02-17T07:59:16.310Z,965.5062256
2023-02-17T08:00:47.118Z,965.5183716
2023-02-17T08:01:47.707Z,965.4691162
2023-02-17T08:02:49.116Z,965.4736938
2023-02-17T08:03:49.688Z,965.4381104
2023-02-17T08:04:50.346Z,965.4180298
2023-02-17T08:05:50.895Z,965.4659424
2023-02-17T08:06:51.502Z,965.4653931
2023-02-17T08:07:52.046Z,965.4422607
2023-02-17T08:08:52.592Z,965.4682617
2023-02-17T08:09:53.819Z,965.404541
2023-02-17T08:10:55.317Z,965.4121094
2023-02-17T08:11:55.898Z,965.387085
2023-02-17T08:12:57.439Z,965.4048462
2023-02-17T08:13:57.990Z,965.3991699
2023-02-17T08:14:58.607Z,965.4539185
2023-02-17T08:15:59.847Z,965.4095459
2023-02-17T08:17:00.686Z,965.4355469
2023-02-17T08:18:01.175Z,965.3809204
2023-02-17T08:19:01.712Z,965.3886108
2023-02-17T08:20:08.691Z,965.4078369
2023-02-17T08:21:02.803Z,965.3934326
2023-02-17T08:22:04.135Z,965.3939819
2023-02-17T08:23:05.655Z,965.4451294
2023-02-17T08:24:06.194Z,965.421936
2023-02-17T08:25:06.774Z,965.4666138
2023-02-17T08:26:08.190Z,965.4614258
2023-02-17T08:27:08.418Z,965.5281982
2023-02-17T08:28:10.073Z,965.5211792
2023-02-17T08:29:11.399Z,965.5521851
2023-02-17T08:30:11.908Z,965.5125122
2023-02-17T08:31:12.516Z,965.5456543
2023-02-17T08:32:13.931Z,965.5604858
2023-02-17T08:33:14.387Z,965.543335
2023-02-17T08:34:15.070Z,965.5880737
2023-02-17T08:35:46.375Z,965.5943604
2023-02-17T08:36:46.929Z,965.5845337
2023-02-17T08:37:47.491Z,965.5891113
2023-02-17T08:38:48.862Z,965.6188965
2023-02-17T08:39:49.457Z,965.6400146
2023-02-17T08:40:49.958Z,965.6414185
2023-02-17T08:41:50.588Z,965.6890869
2023-02-17T08:42:51.869Z,965.7263794
2023-02-17T08:43:52.543Z,965.7200928
2023-02-17T08:44:53.065Z,965.7107544
2023-02-17T08:45:53.632Z,965.7704468
2023-02-17T08:46:54.196Z,965.7759399
2023-02-17T08:47:54.901Z,965.7779541
2023-02-17T08:48:55.408Z,965.782959
2023-02-17T08:49:56.049Z,965.7820435
2023-02-17T08:50:56.514Z,965.774353
2023-02-17T08:51:57.064Z,965.8062744
2023-02-17T08:52:58.409Z,965.7700806
2023-02-17T08:53:58.947Z,965.8070068
2023-02-17T08:54:59.490Z,965.7867432
2023-02-17T08:56:00.031Z,965.8452148
2023-02-17T08:57:00.559Z,965.8460083
2023-02-17T08:58:01.345Z,965.8161621
2023-02-17T08:59:02.710Z,965.819458
2023-02-17T09:00:05.493Z,965.8143921
2023-02-17T09:01:03.854Z,965.7341919
2023-02-17T09:02:04.246Z,965.7876587
2023-02-17T09:03:05.608Z,965.795105
2023-02-17T09:04:06.203Z,965.8191528
2023-02-17T09:05:07.126Z,965.8101807
2023-02-17T09:06:08.572Z,965.833252
2023-02-17T09:07:08.866Z,965.8357544
2023-02-17T09:08:09.361Z,965.8684082
2023-02-17T09:09:09.850Z,965.8626709
2023-02-17T09:10:10.608Z,965.8178101
2023-02-17T09:11:11.188Z,965.9092407
2023-02-17T09:12:11.780Z,965.8521729
2023-02-17T09:13:13.174Z,965.8969727
2023-02-17T09:14:13.714Z,965.8778076
2023-02-17T09:15:14.324Z,965.8925171
2023-02-17T09:16:14.830Z,965.947876
2023-02-17T09:17:45.747Z,965.9542236
2023-02-17T09:18:46.523Z,965.9237671
2023-02-17T09:19:47.139Z,965.9598389
2023-02-17T09:20:47.712Z,965.9865723
2023-02-17T09:21:48.278Z,965.9745483
2023-02-17T09:22:51.430Z,965.9500122
2023-02-17T09:23:50.027Z,965.9865723
2023-02-17T09:24:50.528Z,966.0153198
2023-02-17T09:25:51.097Z,965.9829102
2023-02-17T09:26:51.595Z,966.0042114
2023-02-17T09:27:52.141Z,966.0164795
2023-02-17T09:28:52.695Z,966.0059204
2023-02-17T09:29:53.868Z,966.0178223
2023-02-17T09:30:54.551Z,966.0183105
2023-02-17T09:31:55.171Z,966.0193481
2023-02-17T09:32:56.428Z,966.0367432
2023-02-17T09:33:56.882Z,966.0310669
2023-02-17T09:34:57.499Z,966.0845337
2023-02-17T09:35:58.085Z,966.0604858
2023-02-17T09:36:58.808Z,966.0585327
2023-02-17T09:37:59.410Z,966.1303101
2023-02-17T09:38:59.983Z,966.1557617
2023-02-17T09:40:00.577Z,966.1224976
2023-02-17T09:41:01.280Z,966.1400146
2023-02-17T09:42:01.848Z,966.1330566
2023-02-17T09:43:03.369Z,966.1001587
2023-02-17T09:44:03.925Z,966.0534668
2023-02-17T09:45:04.766Z,966.0876465
2023-02-17T09:46:05.596Z,966.0980225
2023-02-17T09:47:05.949Z,966.1104736
2023-02-17T09:48:06.395Z,966.1225586
2023-02-17T09:49:06.844Z,966.1359863
2023-02-17T09:50:07.562Z,966.1313477
2023-02-17T09:51:08.192Z,966.145752
2023-02-17T09:52:08.747Z,966.1769409
2023-02-17T09:53:09.846Z,966.1853638
2023-02-17T09:54:10.563Z,966.1342163
2023-02-17T09:55:11.124Z,966.1345215
2023-02-17T09:56:11.669Z,966.1535645
2023-02-17T09:57:12.321Z,966.1234131
2023-02-17T09:58:13.722Z,966.131897
2023-02-17T09:59:14.188Z,966.1384888
2023-02-17T10:00:45.300Z,966.1809082
2023-02-17T10:01:46.608Z,966.0890503
2023-02-17T10:02:47.177Z,966.1539307
2023-02-17T10:03:48.617Z,966.1509399
2023-02-17T10:04:49.079Z,966.1347046
2023-02-17T10:05:49.647Z,966.1593628
2023-02-17T10:06:50.232Z,966.1499023
2023-02-17T10:07:50.651Z,966.2312622
2023-02-17T10:08:51.124Z,966.210022
2023-02-17T10:09:51.599Z,966.1956787
2023-02-17T10:10:52.458Z,966.1723633
2023-02-17T10:11:52.982Z,966.117981
2023-02-17T10:12:53.538Z,966.1147461
2023-02-17T10:13:54.624Z,966.0990601
2023-02-17T10:14:55.151Z,966.0978394
2023-02-17T10:15:55.774Z,966.1084595
2023-02-17T10:16:56.199Z,966.1695557
2023-02-17T10:17:56.724Z,966.114624
2023-02-17T10:18:57.390Z,966.1213989
2023-02-17T10:19:57.757Z,966.1074829
2023-02-17T10:20:58.339Z,966.1516113
2023-02-17T10:21:58.878Z,966.1350098
2023-02-17T10:23:00.353Z,966.0925903
2023-02-17T10:24:00.985Z,966.1273193
2023-02-17T10:25:02.078Z,966.1677246
2023-02-17T10:26:02.708Z,966.1001587
2023-02-17T10:27:03.503Z,966.1356812
2023-02-17T10:28:04.902Z,966.0507202
2023-02-17T10:29:05.539Z,966.0657959
2023-02-17T10:30:06.341Z,966.0491943
2023-02-17T10:31:06.954Z,966.1124878
2023-02-17T10:32:07.794Z,966.0513916
2023-02-17T10:33:08.913Z,966.0787354
2023-02-17T10:34:09.544Z,966.1720581
2023-02-17T10:35:10.101Z,966.0352173
2023-02-17T10:36:10.941Z,966.1274414
2023-02-17T10:37:11.660Z,966.1228027
2023-02-17T10:38:12.184Z,966.0843506
2023-02-17T10:39:12.970Z,966.0953979
2023-02-17T10:40:13.532Z,966.1020508
2023-02-17T10:41:44.682Z,966.0775146
2023-02-17T10:42:45.241Z,966.0720215
2023-02-17T10:43:46.607Z,966.1032715
2023-02-17T10:44:47.229Z,966.1013794
2023-02-17T10:45:47.773Z,966.0818481
2023-02-17T10:46:48.318Z,966.0887451
2023-02-17T10:47:49.041Z,966.0999756
2023-02-17T10:48:49.597Z,966.0783081
2023-02-17T10:49:50.085Z,966.0059204
2023-02-17T10:50:50.528Z,965.9904785
2023-02-17T10:51:51.006Z,966.0396729
2023-02-17T10:52:51.538Z,966.0281372
2023-02-17T10:53:52.601Z,966.0181274
2023-02-17T10:54:53.188Z,965.9429932
2023-02-17T10:55:53.646Z,965.9728394
2023-02-17T10:56:54.140Z,965.9352417
2023-02-17T10:57:54.689Z,965.9609375
2023-02-17T10:58:56.121Z,965.9567261
2023-02-17T10:59:56.627Z,965.9706421
2023-02-17T11:00:57.150Z,965.9103394
2023-02-17T11:01:57.583Z,965.9176636
2023-02-17T11:02:58.117Z,965.8912354
2023-02-17T11:03:59.588Z,965.8995361